Time;durP1;ratioP1;P1;durP2;ratioP2;P2;SDS_P1;SDS_P2;PMS_P1;PMS_P2;Temp;Humidity;BMP_temperature;BMP_pressure;BME280_temperature;BME280_humidity;BME280_pressure;Samples;Min_cycle;Max_cycle;Signal;HPM_P1;HPM_P2
2024/01/18 00:01:31;;;;;;;42.37;26.70;;;0.60;99.90;;;;;;8209107;28;20274;-65
2024/01/18 00:05:32;;;;;;;45.53;28.77;;;0.70;1.00;;;;;;8189787;28;20185;-66
2024/01/18 00:09:33;;;;;;;44.43;28.83;;;0.60;1.00;;;;;;8207764;28;20201;-66
2024/01/18 00:13:33;;;;;;;40.87;25.73;;;0.50;99.90;;;;;;8194981;28;20331;-63
2024/01/18 00:17:34;;;;;;;44.27;27.37;;;0.60;99.90;;;;;;8167241;28;20196;-62
2024/01/18 00:21:35;;;;;;;41.83;27.83;;;0.60;99.90;;;;;;8175003;28;20303;-61
2024/01/18 00:25:36;;;;;;;45.13;27.40;;;0.60;1.00;;;;;;8165850;28;20181;-62
2024/01/18 00:29:37;;;;;;;44.47;26.27;;;0.60;1.00;;;;;;8195261;28;20220;-62
2024/01/18 00:33:39;;;;;;;45.37;26.63;;;0.60;99.90;;;;;;8167791;28;20185;-64
2024/01/18 00:37:39;;;;;;;43.03;26.30;;;0.50;99.90;;;;;;8170480;28;20236;-65
2024/01/18 00:41:40;;;;;;;41.43;24.50;;;0.50;99.90;;;;;;8195757;28;20217;-62
2024/01/18 00:45:41;;;;;;;41.60;25.47;;;0.60;99.90;;;;;;8182917;28;20185;-62
2024/01/18 00:49:43;;;;;;;38.50;24.33;;;0.60;99.90;;;;;;8159885;28;20200;-63
2024/01/18 00:53:44;;;;;;;38.43;23.97;;;0.60;99.90;;;;;;8199080;28;20197;-65
2024/01/18 00:57:44;;;;;;;40.20;24.33;;;0.60;99.90;;;;;;8198491;28;20319;-65
2024/01/18 01:01:45;;;;;;;42.50;26.53;;;0.60;99.90;;;;;;8202165;28;20220;-65
2024/01/18 01:05:46;;;;;;;42.33;24.83;;;0.60;99.90;;;;;;8166189;28;20267;-64
2024/01/18 01:09:46;;;;;;;45.07;24.83;;;0.60;99.90;;;;;;8170328;28;20195;-64
2024/01/18 01:13:48;;;;;;;40.70;24.73;;;0.50;99.90;;;;;;8199082;28;20197;-64
2024/01/18 01:17:48;;;;;;;37.83;22.93;;;0.50;99.90;;;;;;8183798;28;20193;-64
2024/01/18 01:21:49;;;;;;;39.13;23.53;;;0.50;99.90;;;;;;8181902;28;20212;-62
2024/01/18 01:25:50;;;;;;;33.60;21.33;;;0.50;99.90;;;;;;8194697;28;20193;-63
2024/01/18 01:29:50;;;;;;;35.70;21.80;;;0.50;99.90;;;;;;8178098;28;20193;-63
2024/01/18 01:33:51;;;;;;;39.87;22.00;;;0.60;99.90;;;;;;8182027;28;20194;-62
2024/01/18 01:37:52;;;;;;;34.43;21.87;;;0.60;99.90;;;;;;8165512;28;20251;-62
2024/01/18 01:41:53;;;;;;;36.83;22.60;;;0.60;99.90;;;;;;8201309;28;20209;-63
2024/01/18 01:45:54;;;;;;;36.87;21.83;;;0.60;99.90;;;;;;8166260;28;20193;-63
2024/01/18 01:49:56;;;;;;;35.30;21.57;;;0.60;99.90;;;;;;8159886;28;20285;-62
2024/01/18 01:53:57;;;;;;;31.97;19.53;;;0.60;99.90;;;;;;8193488;28;20491;-62
2024/01/18 01:57:59;;;;;;;37.33;22.00;;;0.50;99.90;;;;;;8167197;28;20190;-63
2024/01/18 02:02:00;;;;;;;37.50;22.40;;;0.50;99.90;;;;;;8170008;28;20216;-62
2024/01/18 02:06:02;;;;;;;35.93;20.33;;;0.50;99.90;;;;;;8169591;28;20181;-62
2024/01/18 02:10:07;;;;;;;37.53;20.97;;;0.50;99.90;;;;;;8180203;28;20201;-62
2024/01/18 02:14:08;;;;;;;34.40;21.93;;;0.40;99.90;;;;;;8180510;28;20189;-62
2024/01/18 02:18:09;;;;;;;39.07;23.00;;;0.40;99.90;;;;;;8192747;28;20224;-68
2024/01/18 02:22:11;;;;;;;41.47;25.17;;;0.30;99.90;;;;;;8167636;28;20285;-63
2024/01/18 02:26:12;;;;;;;42.47;25.80;;;0.30;99.90;;;;;;8165002;28;20197;-62
2024/01/18 02:30:13;;;;;;;43.10;26.00;;;0.30;99.90;;;;;;8180807;28;20197;-61
2024/01/18 02:34:17;;;;;;;42.63;26.00;;;0.20;99.90;;;;;;8165297;28;20200;-62
2024/01/18 02:38:17;;;;;;;48.17;26.30;;;0.20;99.90;;;;;;8166262;28;20197;-61
2024/01/18 02:42:22;;;;;;;51.70;27.60;;;0.20;99.90;;;;;;8184242;28;20189;-63
2024/01/18 02:46:23;;;;;;;46.50;28.10;;;0.10;99.90;;;;;;8172804;28;20348;-62
2024/01/18 02:50:23;;;;;;;41.10;25.73;;;0.10;99.90;;;;;;8169907;28;20509;-63
2024/01/18 02:54:24;;;;;;;46.53;26.23;;;0.10;99.90;;;;;;8205584;28;20248;-63
2024/01/18 02:58:25;;;;;;;41.67;25.40;;;0.00;99.90;;;;;;8199340;28;20258;-62
2024/01/18 03:02:26;;;;;;;43.40;26.27;;;-0.10;99.90;;;;;;8169878;28;20278;-62
2024/01/18 03:06:26;;;;;;;44.37;25.80;;;-0.10;99.90;;;;;;8170530;28;20216;-62
2024/01/18 03:10:27;;;;;;;44.23;24.67;;;-0.10;99.90;;;;;;8171455;28;20588;-60
2024/01/18 03:14:28;;;;;;;42.17;24.63;;;-0.20;99.90;;;;;;8184858;28;20189;-62
2024/01/18 03:18:28;;;;;;;42.57;26.07;;;-0.20;99.90;;;;;;8184797;28;20204;-61
2024/01/18 03:22:29;;;;;;;44.03;24.73;;;-0.30;99.90;;;;;;8170461;28;20341;-61
2024/01/18 03:26:29;;;;;;;45.97;26.53;;;-0.30;99.90;;;;;;8169026;28;20187;-62
2024/01/18 03:30:30;;;;;;;45.80;25.60;;;-0.30;99.90;;;;;;8207057;28;20261;-63
2024/01/18 03:34:32;;;;;;;42.37;25.50;;;-0.40;99.90;;;;;;8194447;28;20288;-63
2024/01/18 03:38:33;;;;;;;48.13;26.00;;;-0.40;99.90;;;;;;8195335;28;20223;-63
2024/01/18 03:42:33;;;;;;;46.27;25.37;;;-0.50;99.90;;;;;;8201853;28;20236;-62
2024/01/18 03:46:34;;;;;;;40.10;24.20;;;-0.50;99.90;;;;;;8170135;28;20192;-61
2024/01/18 03:50:35;;;;;;;45.30;24.70;;;-0.50;99.90;;;;;;8180220;28;20384;-62
2024/01/18 03:54:35;;;;;;;44.80;25.03;;;-0.50;99.90;;;;;;8164966;28;20192;-62
2024/01/18 03:58:37;;;;;;;37.97;23.57;;;-0.60;99.90;;;;;;8157158;28;20266;-61
2024/01/18 04:02:37;;;;;;;41.27;24.23;;;-0.70;99.90;;;;;;8168881;28;20193;-62
2024/01/18 04:06:38;;;;;;;41.87;24.23;;;-0.70;99.90;;;;;;8181230;28;20511;-62
2024/01/18 04:10:39;;;;;;;41.33;24.23;;;-0.80;99.90;;;;;;8172321;28;20208;-63
2024/01/18 04:14:43;;;;;;;31.63;20.07;;;-0.80;99.90;;;;;;8170790;28;20192;-64
2024/01/18 04:18:44;;;;;;;34.00;20.07;;;-0.80;99.90;;;;;;8195980;28;20240;-62
2024/01/18 04:22:45;;;;;;;32.57;20.17;;;-0.90;99.90;;;;;;8168621;28;20345;-62
2024/01/18 04:26:45;;;;;;;38.23;19.93;;;-0.90;99.90;;;;;;8168021;28;20208;-63
2024/01/18 04:30:47;;;;;;;34.30;19.73;;;-0.90;99.90;;;;;;8164031;28;20200;-63
2024/01/18 04:34:47;;;;;;;30.50;19.00;;;-0.90;99.90;;;;;;8168566;28;20299;-63
2024/01/18 04:38:48;;;;;;;30.53;19.10;;;-1.00;99.90;;;;;;8167856;28;20224;-61
2024/01/18 04:42:49;;;;;;;30.00;17.83;;;-1.00;99.90;;;;;;8170742;28;20320;-63
2024/01/18 04:46:50;;;;;;;30.93;18.53;;;-1.00;99.90;;;;;;8167820;28;20181;-63
2024/01/18 04:50:51;;;;;;;38.43;19.17;;;-1.00;99.90;;;;;;8168823;28;20192;-62
2024/01/18 04:54:51;;;;;;;31.00;19.37;;;-1.00;99.90;;;;;;8164590;28;20199;-63
2024/01/18 04:58:52;;;;;;;33.07;19.63;;;-1.00;99.90;;;;;;8170473;28;20211;-63
2024/01/18 05:02:53;;;;;;;30.60;18.30;;;-1.00;99.90;;;;;;8193734;28;20244;-63
2024/01/18 05:06:54;;;;;;;32.67;19.20;;;-1.00;99.90;;;;;;8168536;28;20188;-62
2024/01/18 05:10:54;;;;;;;33.73;18.17;;;-1.00;99.90;;;;;;8190700;28;20474;-62
2024/01/18 05:14:56;;;;;;;29.73;17.80;;;-1.00;99.90;;;;;;8183746;28;20219;-63
2024/01/18 05:18:57;;;;;;;29.20;18.07;;;-1.00;99.90;;;;;;8175622;28;20576;-63
2024/01/18 05:22:58;;;;;;;30.63;18.50;;;-1.00;99.90;;;;;;8169678;28;20249;-63
2024/01/18 05:26:58;;;;;;;31.17;18.13;;;-1.00;99.90;;;;;;8187010;28;20332;-64
2024/01/18 05:30:59;;;;;;;32.13;20.10;;;-1.00;99.90;;;;;;8167742;28;20196;-63
2024/01/18 05:35:04;;;;;;;30.60;19.43;;;-1.00;99.90;;;;;;8167508;28;20199;-63
2024/01/18 05:39:05;;;;;;;29.90;19.10;;;-1.00;99.90;;;;;;8170109;28;20205;-63
2024/01/18 05:43:06;;;;;;;30.77;19.67;;;-1.00;99.90;;;;;;8193077;28;20186;-64
2024/01/18 05:47:08;;;;;;;33.00;19.77;;;-1.00;99.90;;;;;;8173994;28;20280;-62
2024/01/18 05:51:09;;;;;;;32.33;18.77;;;-1.00;99.90;;;;;;8199178;28;20277;-63
2024/01/18 05:55:09;;;;;;;28.53;17.97;;;-1.00;99.90;;;;;;8170844;28;20188;-62
2024/01/18 05:59:10;;;;;;;26.73;16.57;;;-1.10;99.90;;;;;;8171589;28;20220;-63
2024/01/18 06:03:11;;;;;;;32.83;18.70;;;-1.10;99.90;;;;;;8186455;28;20200;-62
2024/01/18 06:07:12;;;;;;;29.80;16.93;;;-1.20;99.90;;;;;;8172254;28;20188;-63
2024/01/18 06:11:14;;;;;;;31.83;19.13;;;-1.10;99.90;;;;;;8185063;28;20275;-63
2024/01/18 06:15:15;;;;;;;31.97;17.93;;;-0.90;99.90;;;;;;8175466;28;20193;-63
2024/01/18 06:19:16;;;;;;;31.47;19.03;;;-0.90;99.90;;;;;;8185880;28;20240;-63
2024/01/18 06:23:16;;;;;;;27.33;16.47;;;-1.00;99.90;;;;;;8179769;28;20196;-63
2024/01/18 06:27:17;;;;;;;25.17;16.30;;;-1.10;99.90;;;;;;8163239;28;20195;-63
2024/01/18 06:31:19;;;;;;;30.67;17.23;;;-1.20;99.90;;;;;;8165266;28;20196;-63
2024/01/18 06:35:20;;;;;;;30.80;18.50;;;-1.30;99.90;;;;;;8173120;28;20222;-63
2024/01/18 06:39:21;;;;;;;32.10;16.70;;;-1.30;99.90;;;;;;8169111;28;20214;-64
2024/01/18 06:43:22;;;;;;;33.80;17.03;;;-1.40;99.90;;;;;;8185698;28;20495;-63
2024/01/18 06:47:22;;;;;;;26.27;16.67;;;-1.40;99.90;;;;;;8173678;28;20281;-63
2024/01/18 06:51:24;;;;;;;26.73;14.67;;;-1.40;99.90;;;;;;8180362;28;20195;-63
2024/01/18 06:55:26;;;;;;;24.03;15.10;;;-1.40;99.90;;;;;;8188111;28;20296;-64
2024/01/18 06:59:26;;;;;;;26.20;15.47;;;-1.30;99.90;;;;;;8174524;28;20209;-64
2024/01/18 07:03:30;;;;;;;27.03;15.73;;;-1.20;99.90;;;;;;8193689;28;20236;-64
2024/01/18 07:07:31;;;;;;;31.27;17.20;;;-1.20;99.90;;;;;;8203035;28;20185;-64
2024/01/18 07:11:31;;;;;;;34.30;22.37;;;-1.20;99.90;;;;;;8174529;28;20260;-64
2024/01/18 07:15:32;;;;;;;31.07;18.83;;;-1.20;99.90;;;;;;8189884;28;20399;-63
2024/01/18 07:19:33;;;;;;;35.13;20.27;;;-1.20;99.90;;;;;;8178303;28;20213;-64
2024/01/18 07:23:34;;;;;;;30.90;17.80;;;-1.20;99.90;;;;;;8207699;28;20255;-64
2024/01/18 07:27:34;;;;;;;26.03;17.20;;;-1.20;99.90;;;;;;8213177;28;20215;-64
2024/01/18 07:31:35;;;;;;;27.17;16.53;;;-1.10;99.90;;;;;;8194240;28;20193;-64
2024/01/18 07:35:36;;;;;;;26.97;15.93;;;-1.10;99.90;;;;;;8194249;28;20193;-64
2024/01/18 07:39:37;;;;;;;32.93;17.80;;;-1.10;99.90;;;;;;8210748;28;20224;-65
2024/01/18 07:43:39;;;;;;;27.53;17.27;;;-1.00;99.90;;;;;;8211098;28;20244;-65
2024/01/18 07:47:42;;;;;;;26.80;17.00;;;-1.00;99.90;;;;;;8209557;28;20190;-64
2024/01/18 07:51:43;;;;;;;29.33;18.30;;;-1.00;99.90;;;;;;8212238;28;20189;-63
2024/01/18 07:55:44;;;;;;;27.33;16.17;;;-1.00;99.90;;;;;;8221953;28;20196;-63
2024/01/18 07:59:45;;;;;;;34.03;21.07;;;-1.10;99.90;;;;;;8195968;28;20232;-63
2024/01/18 08:03:46;;;;;;;33.90;22.30;;;-1.10;99.90;;;;;;8196236;28;20185;-63
2024/01/18 08:07:47;;;;;;;30.13;18.13;;;-1.10;99.90;;;;;;8213188;28;20188;-63
2024/01/18 08:11:49;;;;;;;34.87;21.17;;;-1.20;99.90;;;;;;8197580;28;20208;-65
2024/01/18 08:15:50;;;;;;;32.30;17.40;;;-1.20;99.90;;;;;;8212968;28;20192;-64
2024/01/18 08:19:51;;;;;;;29.90;18.60;;;-1.20;99.90;;;;;;8190277;28;20220;-64
2024/01/18 08:23:53;;;;;;;30.47;19.60;;;-1.20;99.90;;;;;;8208214;28;20272;-64
2024/01/18 08:27:58;;;;;;;28.77;16.33;;;-1.20;99.90;;;;;;8226802;28;20192;-64
2024/01/18 08:31:58;;;;;;;28.97;17.00;;;-1.20;99.90;;;;;;8204778;28;20282;-62
2024/01/18 08:35:59;;;;;;;27.43;17.47;;;-1.20;99.90;;;;;;8174668;28;20196;-64
2024/01/18 08:40:00;;;;;;;28.37;15.73;;;-1.20;99.90;;;;;;8188824;28;20227;-63
2024/01/18 08:44:02;;;;;;;33.90;16.63;;;-1.10;99.90;;;;;;8202375;28;20211;-64
2024/01/18 08:48:03;;;;;;;28.80;18.10;;;-1.10;99.90;;;;;;8198465;28;20212;-64
2024/01/18 08:52:04;;;;;;;28.47;17.97;;;-1.00;99.90;;;;;;8201631;28;20208;-63
2024/01/18 08:56:04;;;;;;;26.67;17.70;;;-1.00;99.90;;;;;;8184695;28;20302;-64
2024/01/18 09:00:06;;;;;;;31.07;17.23;;;-1.00;99.90;;;;;;8196381;28;20209;-62
2024/01/18 09:04:07;;;;;;;25.63;16.50;;;-1.00;99.90;;;;;;8177909;28;20267;-63
2024/01/18 09:08:07;;;;;;;27.47;16.83;;;-1.00;99.90;;;;;;8170002;28;20186;-64
2024/01/18 09:12:08;;;;;;;28.63;17.17;;;-0.90;99.90;;;;;;8170390;28;20271;-63
2024/01/18 09:16:09;;;;;;;30.63;17.50;;;-0.90;99.90;;;;;;8187882;28;20199;-62
2024/01/18 09:20:10;;;;;;;30.80;17.97;;;-0.70;99.90;;;;;;8177030;28;20216;-63
2024/01/18 09:24:11;;;;;;;29.77;18.20;;;-0.60;99.90;;;;;;8185707;28;20184;-63
2024/01/18 09:28:12;;;;;;;30.57;17.97;;;-0.40;99.90;;;;;;8183749;28;20235;-62
2024/01/18 09:32:13;;;;;;;29.13;18.27;;;-0.30;99.90;;;;;;8172567;28;20188;-63
2024/01/18 09:36:14;;;;;;;27.80;18.77;;;0.00;99.90;;;;;;8167208;28;20273;-64
2024/01/18 09:40:15;;;;;;;25.20;15.20;;;0.10;99.90;;;;;;8205067;28;20224;-65
2024/01/18 09:44:27;;;;;;;25.03;15.33;;;0.00;81.30;;;;;;8179894;28;20207;-63
2024/01/18 09:48:27;;;;;;;25.90;17.37;;;-0.20;99.90;;;;;;8175923;28;20259;-63
2024/01/18 09:52:28;;;;;;;24.77;15.80;;;-0.10;99.90;;;;;;8186002;28;20237;-63
2024/01/18 09:56:42;;;;;;;24.50;15.63;;;0.00;99.90;;;;;;8226663;28;20205;-65
2024/01/18 10:00:46;;;;;;;22.83;15.57;;;0.00;99.90;;;;;;8205492;28;20212;-63
2024/01/18 10:04:48;;;;;;;24.30;15.03;;;0.20;99.80;;;;;;8169706;28;20185;-64
2024/01/18 10:08:52;;;;;;;22.97;15.43;;;0.50;60.90;;;;;;8167080;28;20192;-63
2024/01/18 10:12:53;;;;;;;24.60;14.73;;;0.40;1.00;;;;;;8170117;28;20287;-63
2024/01/18 10:16:56;;;;;;;25.20;14.37;;;0.20;1.00;;;;;;8171081;28;20208;-63
2024/01/18 10:20:57;;;;;;;22.10;14.30;;;0.00;1.00;;;;;;8168527;28;20213;-63
2024/01/18 10:24:58;;;;;;;27.13;18.00;;;-0.10;23.70;;;;;;8170605;28;20208;-63
2024/01/18 10:28:59;;;;;;;25.93;15.73;;;-0.10;88.60;;;;;;8170358;28;20189;-63
2024/01/18 10:33:00;;;;;;;29.33;18.20;;;-0.20;99.90;;;;;;8169546;28;20336;-63
2024/01/18 10:37:01;;;;;;;29.33;17.83;;;-0.30;99.90;;;;;;8164502;28;20196;-63
2024/01/18 10:41:02;;;;;;;24.97;16.53;;;-0.40;99.90;;;;;;8167859;28;20288;-63
2024/01/18 10:45:05;;;;;;;25.37;15.43;;;-0.40;99.90;;;;;;8167931;28;20498;-63
2024/01/18 10:49:06;;;;;;;23.90;15.97;;;-0.40;99.90;;;;;;8200759;28;20256;-63
2024/01/18 10:53:08;;;;;;;23.77;15.50;;;-0.40;99.90;;;;;;8167547;28;20196;-63
2024/01/18 10:57:09;;;;;;;26.67;15.90;;;-0.40;99.90;;;;;;8170608;28;20563;-63
2024/01/18 11:01:10;;;;;;;25.97;16.53;;;-0.40;99.90;;;;;;8173382;28;20263;-63
2024/01/18 11:05:20;;;;;;;26.20;16.77;;;-0.30;99.90;;;;;;8172908;28;20184;-63
2024/01/18 11:09:26;;;;;;;20.93;14.97;;;-0.40;99.90;;;;;;8186933;28;20288;-63
2024/01/18 11:13:27;;;;;;;29.33;17.43;;;-0.40;99.90;;;;;;8176720;28;20189;-63
2024/01/18 11:17:28;;;;;;;22.60;15.30;;;-0.50;99.90;;;;;;8203933;28;20197;-63
2024/01/18 11:21:42;;;;;;;24.77;15.87;;;-0.60;99.90;;;;;;8193556;28;20221;-63
2024/01/18 11:25:44;;;;;;;26.33;15.67;;;-0.60;99.90;;;;;;8185675;28;20194;-62
2024/01/18 11:29:49;;;;;;;26.57;16.00;;;-0.60;99.90;;;;;;8180988;28;20272;-63
2024/01/18 11:33:50;;;;;;;24.90;14.30;;;-0.60;99.90;;;;;;8190163;28;20204;-63
2024/01/18 11:37:51;;;;;;;30.03;17.70;;;-0.70;99.90;;;;;;8176892;28;20817;-63
2024/01/18 11:41:51;;;;;;;25.43;16.77;;;-0.70;99.90;;;;;;8181816;28;20223;-63
2024/01/18 11:45:54;;;;;;;24.90;16.60;;;-0.70;99.90;;;;;;8175136;28;20185;-65
2024/01/18 11:49:56;;;;;;;27.70;17.93;;;-0.70;99.90;;;;;;8192382;28;20193;-63
2024/01/18 11:54:01;;;;;;;30.67;19.13;;;-0.70;99.90;;;;;;8177698;28;20273;-63
2024/01/18 11:58:02;;;;;;;21.90;13.97;;;-0.80;99.90;;;;;;8189622;28;20228;-63
2024/01/18 12:02:03;;;;;;;18.57;11.40;;;-0.80;99.90;;;;;;8184246;28;20854;-63
2024/01/18 12:06:04;;;;;;;15.10;9.73;;;-0.90;99.90;;;;;;8183483;28;20191;-63
2024/01/18 12:10:07;;;;;;;14.27;8.70;;;-1.00;59.10;;;;;;8176910;28;20207;-64
2024/01/18 12:14:07;;;;;;;15.87;9.13;;;-0.90;39.70;;;;;;8210853;28;20181;-63
2024/01/18 12:18:08;;;;;;;15.67;9.80;;;-0.90;78.00;;;;;;8202483;28;20309;-62
2024/01/18 12:22:17;;;;;;;38.27;16.67;;;-0.90;99.90;;;;;;8163616;28;20209;-64
2024/01/18 12:26:18;;;;;;;17.90;11.20;;;-0.90;99.90;;;;;;8172171;28;20186;-64
2024/01/18 12:30:19;;;;;;;18.83;11.63;;;-1.00;99.90;;;;;;8177444;28;20616;-65
2024/01/18 12:34:21;;;;;;;22.13;12.97;;;-1.10;99.90;;;;;;8186419;28;20193;-66
2024/01/18 12:38:22;;;;;;;21.23;12.27;;;-1.10;99.90;;;;;;8185319;28;20236;-64
2024/01/18 12:42:22;;;;;;;17.43;11.20;;;-1.10;99.90;;;;;;8191419;28;20209;-65
2024/01/18 12:46:23;;;;;;;19.40;11.80;;;-1.20;99.90;;;;;;8203048;28;20189;-65
2024/01/18 12:50:24;;;;;;;17.47;11.03;;;-1.20;99.90;;;;;;8223229;28;20193;-63
2024/01/18 12:54:28;;;;;;;16.30;10.20;;;-1.20;99.90;;;;;;8173638;28;20203;-63
2024/01/18 12:58:29;;;;;;;21.73;11.63;;;-1.30;99.90;;;;;;8171296;28;20209;-63
2024/01/18 13:02:30;;;;;;;19.00;11.83;;;-1.40;99.90;;;;;;8173473;28;20216;-63
2024/01/18 13:06:31;;;;;;;17.97;12.10;;;-1.50;99.90;;;;;;8172763;28;20229;-63
2024/01/18 13:10:32;;;;;;;21.00;13.83;;;-1.50;99.90;;;;;;8209120;28;20207;-64
2024/01/18 13:14:37;;;;;;;30.73;16.27;;;-1.40;99.90;;;;;;8163898;28;20250;-63
2024/01/18 13:18:38;;;;;;;23.90;12.97;;;-1.40;99.90;;;;;;8190547;28;20186;-64
2024/01/18 13:22:40;;;;;;;17.23;11.80;;;-1.40;99.90;;;;;;8185565;28;20188;-63
2024/01/18 13:26:41;;;;;;;23.90;14.07;;;-1.40;99.90;;;;;;8166171;28;20177;-63
2024/01/18 13:30:43;;;;;;;21.00;13.33;;;-1.50;99.90;;;;;;8198266;28;20214;-64
2024/01/18 13:34:44;;;;;;;22.83;13.27;;;-1.40;99.90;;;;;;8179371;28;20199;-64
2024/01/18 13:38:45;;;;;;;20.37;13.07;;;-1.50;99.90;;;;;;8172854;28;20219;-64
2024/01/18 13:42:46;;;;;;;25.50;15.10;;;-1.50;99.90;;;;;;8182821;28;20293;-63
2024/01/18 13:46:46;;;;;;;26.40;14.63;;;-1.50;99.90;;;;;;8166287;28;20271;-63
2024/01/18 13:50:47;;;;;;;23.73;14.90;;;-1.50;99.90;;;;;;8169084;28;20196;-62
2024/01/18 13:54:48;;;;;;;28.00;15.63;;;-1.50;99.90;;;;;;8197757;28;20289;-63
2024/01/18 13:58:52;;;;;;;24.87;13.97;;;-1.50;99.90;;;;;;8171016;28;20211;-63
2024/01/18 14:02:53;;;;;;;29.40;16.00;;;-1.60;99.90;;;;;;8169086;28;20184;-63
2024/01/18 14:06:54;;;;;;;23.43;15.60;;;-1.60;99.90;;;;;;8168777;28;20190;-64
2024/01/18 14:10:55;;;;;;;28.87;17.63;;;-1.60;99.90;;;;;;8184749;28;20211;-66
2024/01/18 14:14:56;;;;;;;26.47;15.90;;;-1.60;99.90;;;;;;8180259;28;20189;-64
2024/01/18 14:18:57;;;;;;;26.37;15.77;;;-1.70;99.90;;;;;;8180527;28;20261;-65
2024/01/18 14:22:58;;;;;;;27.33;16.83;;;-1.70;99.90;;;;;;8195535;28;20228;-65
2024/01/18 14:26:58;;;;;;;27.17;15.73;;;-1.70;99.90;;;;;;8196621;28;20203;-66
2024/01/18 14:31:00;;;;;;;30.37;15.73;;;-1.70;99.90;;;;;;8182467;28;20195;-65
2024/01/18 14:35:01;;;;;;;23.33;14.73;;;-1.70;99.90;;;;;;8203357;28;20187;-66
2024/01/18 14:39:03;;;;;;;25.63;15.30;;;-1.70;99.90;;;;;;8191498;28;20227;-66
2024/01/18 14:43:04;;;;;;;23.70;15.50;;;-1.70;99.90;;;;;;8193897;28;20185;-65
2024/01/18 14:47:06;;;;;;;28.50;16.63;;;-1.70;99.90;;;;;;8211429;28;20226;-67
2024/01/18 14:51:06;;;;;;;34.23;17.90;;;-1.70;99.90;;;;;;8212293;28;20199;-65
2024/01/18 14:55:09;;;;;;;29.33;17.03;;;-1.70;99.90;;;;;;8229716;28;20202;-66
2024/01/18 14:59:09;;;;;;;33.20;17.37;;;-1.70;99.90;;;;;;8213661;28;20243;-65
2024/01/18 15:03:10;;;;;;;25.63;14.50;;;-1.60;99.90;;;;;;8194444;28;20215;-66
2024/01/18 15:07:13;;;;;;;25.03;12.70;;;-1.70;99.90;;;;;;8211885;28;20185;-65
2024/01/18 15:11:14;;;;;;;27.47;16.13;;;-1.70;99.90;;;;;;8194307;28;20235;-65
2024/01/18 15:15:15;;;;;;;28.33;15.27;;;-1.70;99.90;;;;;;8211262;28;20476;-65
2024/01/18 15:19:17;;;;;;;23.97;14.03;;;-1.70;99.90;;;;;;8211060;28;20246;-66
2024/01/18 15:23:17;;;;;;;24.97;12.30;;;-1.70;99.90;;;;;;8185627;28;20294;-64
2024/01/18 15:27:18;;;;;;;24.57;13.50;;;-1.70;99.90;;;;;;8181618;28;20272;-63
2024/01/18 15:31:27;;;;;;;22.43;14.33;;;-1.70;99.90;;;;;;8196184;28;20257;-65
2024/01/18 15:35:28;;;;;;;20.87;13.03;;;-1.70;99.90;;;;;;8207109;28;20225;-65
2024/01/18 15:39:30;;;;;;;21.77;12.90;;;-1.70;99.90;;;;;;8211463;28;20218;-65
2024/01/18 15:43:31;;;;;;;19.07;10.90;;;-1.60;99.90;;;;;;8211499;28;20192;-65
2024/01/18 15:47:39;;;;;;;25.77;13.33;;;-1.60;99.90;;;;;;8192802;28;20258;-65
2024/01/18 15:51:39;;;;;;;22.73;13.73;;;-1.70;99.90;;;;;;8206625;28;20307;-66
2024/01/18 15:55:40;;;;;;;22.87;13.87;;;-1.80;99.90;;;;;;8208769;28;20266;-66
2024/01/18 15:59:41;;;;;;;18.00;10.90;;;-1.80;99.90;;;;;;8193972;28;20274;-65
2024/01/18 16:03:42;;;;;;;21.93;12.60;;;-1.80;99.90;;;;;;8210560;28;20184;-66
2024/01/18 16:07:43;;;;;;;18.03;11.33;;;-1.80;99.90;;;;;;8211596;28;20193;-65
2024/01/18 16:11:44;;;;;;;20.03;11.07;;;-1.80;99.90;;;;;;8194583;28;20190;-66
2024/01/18 16:15:45;;;;;;;14.40;9.43;;;-1.70;99.90;;;;;;8210032;28;20196;-64
2024/01/18 16:19:46;;;;;;;15.93;10.17;;;-1.70;99.90;;;;;;8192082;28;20212;-65
2024/01/18 16:23:48;;;;;;;14.90;9.50;;;-1.70;99.90;;;;;;8193236;28;20200;-65
2024/01/18 16:27:48;;;;;;;19.73;11.80;;;-1.80;99.90;;;;;;8196544;28;20190;-65
2024/01/18 16:31:49;;;;;;;14.90;9.63;;;-1.80;99.90;;;;;;8209331;28;20268;-65
2024/01/18 16:35:50;;;;;;;20.53;11.77;;;-1.80;99.90;;;;;;8208332;28;20192;-65
2024/01/18 16:39:52;;;;;;;15.77;10.40;;;-1.80;99.90;;;;;;8192231;28;20212;-66
2024/01/18 16:43:54;;;;;;;18.00;10.80;;;-1.80;99.90;;;;;;8206852;28;20193;-66
2024/01/18 16:47:58;;;;;;;19.33;11.27;;;-1.80;99.90;;;;;;8225222;28;20181;-66
2024/01/18 16:51:59;;;;;;;22.53;12.27;;;-1.70;99.90;;;;;;8223794;28;20209;-66
2024/01/18 16:55:59;;;;;;;22.07;11.73;;;-1.70;99.90;;;;;;8207049;28;20193;-66
2024/01/18 17:00:00;;;;;;;19.90;12.20;;;-1.70;99.90;;;;;;8210077;28;20213;-66
2024/01/18 17:04:04;;;;;;;21.63;12.37;;;-1.70;99.90;;;;;;8209438;28;20193;-66
2024/01/18 17:08:06;;;;;;;17.53;11.73;;;-1.70;99.90;;;;;;8207470;28;20189;-66
2024/01/18 17:12:07;;;;;;;20.07;13.23;;;-1.70;99.90;;;;;;8193322;28;20231;-66
2024/01/18 17:16:09;;;;;;;20.60;12.60;;;-1.70;99.90;;;;;;8203890;28;20287;-66
2024/01/18 17:20:10;;;;;;;21.60;11.77;;;-1.70;99.90;;;;;;8209903;28;20197;-66
2024/01/18 17:24:11;;;;;;;23.83;13.67;;;-1.70;99.90;;;;;;8191683;28;20181;-66
2024/01/18 17:28:11;;;;;;;21.67;12.73;;;-1.70;99.90;;;;;;8206609;28;20264;-65
2024/01/18 17:32:12;;;;;;;19.90;12.60;;;-1.80;99.90;;;;;;8195297;28;20196;-66
2024/01/18 17:36:13;;;;;;;23.80;15.17;;;-1.80;99.90;;;;;;8206832;28;20199;-66
2024/01/18 17:40:14;;;;;;;25.20;14.20;;;-1.80;99.90;;;;;;8190074;28;20223;-66
2024/01/18 17:44:15;;;;;;;22.47;14.60;;;-1.70;99.90;;;;;;8225872;28;20197;-66
2024/01/18 17:48:16;;;;;;;23.83;15.70;;;-1.70;99.90;;;;;;8188308;28;20275;-67
2024/01/18 17:52:17;;;;;;;26.17;16.30;;;-1.70;99.90;;;;;;8177547;28;20248;-64
2024/01/18 17:56:17;;;;;;;26.77;16.00;;;-1.70;99.90;;;;;;8166307;28;20197;-64
2024/01/18 18:00:18;;;;;;;26.57;17.50;;;-1.80;99.90;;;;;;8173423;28;20220;-64
2024/01/18 18:04:19;;;;;;;27.73;17.73;;;-1.80;99.90;;;;;;8198047;28;20195;-64
2024/01/18 18:08:19;;;;;;;30.17;18.07;;;-1.80;99.90;;;;;;8197578;28;20196;-65
2024/01/18 18:12:20;;;;;;;32.87;18.00;;;-1.80;99.90;;;;;;8179936;28;20936;-65
2024/01/18 18:16:21;;;;;;;32.10;18.93;;;-1.80;99.90;;;;;;8166005;28;21460;-63
2024/01/18 18:20:22;;;;;;;33.17;18.83;;;-1.80;99.90;;;;;;8173426;28;20216;-65
2024/01/18 18:24:23;;;;;;;31.70;17.97;;;-1.90;99.90;;;;;;8185179;28;20191;-64
2024/01/18 18:28:23;;;;;;;33.13;19.77;;;-1.90;99.90;;;;;;8187497;28;20203;-64
2024/01/18 18:32:24;;;;;;;34.80;18.93;;;-1.80;99.90;;;;;;8163539;28;20183;-64
2024/01/18 18:36:25;;;;;;;32.67;18.73;;;-1.80;99.90;;;;;;8157674;28;20196;-65
2024/01/18 18:40:29;;;;;;;32.30;19.27;;;-1.80;99.90;;;;;;8167862;28;20287;-66
2024/01/18 18:44:29;;;;;;;29.90;18.83;;;-1.80;99.90;;;;;;8153911;28;20192;-63
2024/01/18 18:48:30;;;;;;;32.10;18.77;;;-1.70;99.90;;;;;;8198951;28;20369;-64
2024/01/18 18:52:33;;;;;;;39.97;21.57;;;-1.70;99.90;;;;;;8160384;28;20221;-64
2024/01/18 18:56:33;;;;;;;39.33;22.57;;;-1.70;99.90;;;;;;8183679;28;20207;-63
2024/01/18 19:00:34;;;;;;;37.67;20.43;;;-1.80;99.90;;;;;;8161503;28;20224;-64
2024/01/18 19:04:35;;;;;;;38.87;20.47;;;-1.70;99.90;;;;;;8168820;28;20271;-64
2024/01/18 19:08:38;;;;;;;33.07;20.37;;;-1.70;99.90;;;;;;8168902;28;20202;-63
2024/01/18 19:12:39;;;;;;;43.27;23.13;;;-1.70;99.90;;;;;;8203438;28;20211;-65
2024/01/18 19:16:40;;;;;;;38.33;21.63;;;-1.80;99.90;;;;;;8176932;28;20242;-65
2024/01/18 19:20:41;;;;;;;38.43;20.57;;;-1.90;99.90;;;;;;8178823;28;20223;-67
2024/01/18 19:24:42;;;;;;;33.67;19.00;;;-1.90;99.90;;;;;;8185630;28;20189;-66
2024/01/18 19:28:42;;;;;;;32.87;19.67;;;-2.00;99.90;;;;;;8192709;28;20231;-66
2024/01/18 19:32:43;;;;;;;34.97;19.57;;;-2.00;99.90;;;;;;8200622;28;20191;-66
2024/01/18 19:36:45;;;;;;;33.00;19.37;;;-2.10;99.90;;;;;;8186976;28;20202;-66
2024/01/18 19:40:45;;;;;;;31.30;17.63;;;-2.10;99.90;;;;;;8184084;28;20312;-66
2024/01/18 19:44:46;;;;;;;28.13;16.83;;;-2.10;99.90;;;;;;8182012;28;20186;-66
2024/01/18 19:48:47;;;;;;;36.53;20.20;;;-2.20;99.90;;;;;;8198261;28;20199;-66
2024/01/18 19:52:50;;;;;;;42.50;20.67;;;-2.30;99.90;;;;;;8198267;28;20229;-66
2024/01/18 19:56:51;;;;;;;34.37;19.20;;;-2.30;99.90;;;;;;8183807;28;20182;-66
2024/01/18 20:00:54;;;;;;;32.93;17.53;;;-2.30;99.90;;;;;;8177909;28;20313;-67
2024/01/18 20:04:55;;;;;;;27.10;16.93;;;-2.30;99.90;;;;;;8184131;28;20198;-66
2024/01/18 20:08:57;;;;;;;28.53;15.73;;;-2.30;99.90;;;;;;8208486;28;20190;-66
2024/01/18 20:12:57;;;;;;;28.00;15.70;;;-2.20;99.90;;;;;;8193295;28;20218;-66
2024/01/18 20:16:58;;;;;;;30.70;17.43;;;-2.20;99.90;;;;;;8176316;28;20237;-66
2024/01/18 20:20:59;;;;;;;26.43;15.13;;;-2.20;99.90;;;;;;8179927;28;20210;-66
2024/01/18 20:25:01;;;;;;;30.00;17.17;;;-2.20;99.90;;;;;;8194764;28;20215;-67